Scroll down
FLIGHT INFORMATION
Japan Airlines

JAL620

At Arrival Gate

PANC
 EGLL
DATE: 2019-06-20
GATE:  -
GATE DEPARTURE: 20:37
TAKEOFF: 20:49
DATE: 2019-06-21
GATE:  -
LANDING: 04:56
GATE ARRIVAL: 04:59
FLIGHT DATA
Crew: 
Speed: 
974 kph
Altitude: 
35,122 ft
Stage Length: 
7,199.8 km
Block Time: 
8.4 hrs
Flight Time: 
8.1 hrs
Fuel Used: 
88,179 kg
Cleared Route: PANC BGQ CAWIN FAI AYKID FYU ADREW 73N34 77N23 79N07 8081N 7947N 7623N 7112N 6707N 6204N BAMRA SOXON PIPEM VADNO FINDO TLA UNURO ASRUS DCS SUBUK BILVO TADAL ASNIP VABKA UMKIL NANTI NUGRA EGLL
TRACK DATA
50,000 ft 1,000 kts
AIRCRAFT INFO AND CUMULATIVE STATS
Aircraft Type: 
B744F
Registration: 
SELCAL: 
FRAC
MSN/LN: 
33748 / 1351
Operator: 
Total Flights: 
1
Total Block Time: 
8.4 hrs
Total Flight Time: 
8.1 hrs
Total Fuel Used: 
88,179 kg
DATALINK LOG | Newest first | Current as of: 2022-10-05 22:26:04
LABEL SEQUENCE CONTENT Dn/Up
462908/OV POL /TM 0429 /FL350 /TP B744 /SK SCT /TA -14 /WV 240/45 /RM NONE▼ Dn
2U2727EGKK 201220Z 23009KT 9999 FEW033 17/11 Q1013▲ Up
2S2727EGKK▼ Dn
5R2658SUBUK 04:19z FL349 BILVO 04:24z TADAL M0.86 20.5 -12 239/40 RW27R 04:53z▼ Dn
5R2658SUBUK 04:19z FL349 BILVO 04:24z TADAL M0.86 20.5 -12 239/40 RW27R 04:53z▼ Dn
5R2657SUBUK 04:19z FL349 BILVO 04:24z TADAL M0.86 20.5 -12 239/40 RW27R 04:53z▼ Dn
5R2657SUBUK 04:19z FL349 BILVO 04:24z TADAL M0.86 20.5 -12 239/40 RW27R 04:53z▼ Dn
5R2656SUBUK 04:19z FL349 BILVO 04:24z TADAL M0.86 20.5 -12 239/40 RW27R 04:53z▼ Dn
5R2640SUBUK 04:19z FL349 BILVO 04:24z TADAL M0.86 20.5 -12 239/40 RW27R 04:53z▼ Dn
5R2620SUBUK 04:19z FL349 BILVO 04:24z TADAL M0.86 20.5 -12 239/40 RW27R 04:53z▼ Dn
5R2619SUBUK 04:19z FL349 BILVO 04:24z TADAL M0.86 20.5 -12 239/40 RW27R 04:53z▼ Dn
5R2618SUBUK 04:19z FL349 BILVO 04:24z TADAL M0.86 20.5 -12 239/40 RW27R 04:53z▼ Dn
2U1446EGLL 201220Z AUTO 27013KT 9999 NCD 18/09 Q1013 NOSIG▲ Up
2S1446EGLL▼ Dn
5R1123TLA 04:11z FL350 UNURO 04:13z ASRUS M0.86 21.9 -8 233/30 RW27R 04:55z▼ Dn
5R1121TLA 04:11z FL350 UNURO 04:13z ASRUS M0.86 21.9 -8 233/30 RW27R 04:55z▼ Dn
A73532CLEARANCE AVAIL WITHIN 0:25 OF EDT▲ Up
B32644PANC EGLL JAL620 Q ▼ Dn
A73229CLEARANCE AVAIL WITHIN 0:25 OF EDT▲ Up
B32258PANC EGLL JAL620 Q ▼ Dn
A72926CLEARANCE AVAIL WITHIN 0:25 OF EDT▲ Up
B32001PANC EGLL JAL620 N ▼ Dn
A72522CLEARANCE AVAIL WITHIN 0:25 OF EDT▲ Up
B31637PANC EGLL JAL620 N ▼ Dn
A72321CLEARANCE AVAIL WITHIN 0:25 OF EDT▲ Up
B31416PANC EGLL JAL620 N ▼ Dn
A72008CLEARANCE AVAIL WITHIN 0:25 OF EDT▲ Up
B31100PANC EGLL JAL620 N ▼ Dn
2U0919PANC 200853Z 16003KT 10SM FEW060 11/08 A3025 RMK AO2 SLP245 T01110078 402000106 53014▲ Up
2S0919PANC▼ Dn
Q01419[LINK ACK]▲ Up
Q00719[LINK TEST]▼ Dn


AIRCRAFT HISTORY
FLIGHT DATE FLIGHT NO. ORIGIN DESTINATION CLEARED ROUTE BLOCK TIME FLIGHT TIME FUEL USED PILOT
2019-06-20JAL620PANC EGLL PANC BGQ CAWIN FAI AYKID FYU ADREW 73N34 77N23 79N07 8081N 7947N 7623N 7112N 6707N 6204N BAMRA SOXON PIPEM VADNO FINDO TLA UNURO ASRUS DCS SUBUK BILVO TADAL ASNIP VABKA UMKIL NANTI NUGRA EGLL8.4 hrs8.1 hrs194,401 lb-HIDDEN-